Time;durP1;ratioP1;P1;durP2;ratioP2;P2;SDS_P1;SDS_P2;PMS_P1;PMS_P2;Temp;Humidity;BMP_temperature;BMP_pressure;BME280_temperature;BME280_humidity;BME280_pressure;Samples;Min_cycle;Max_cycle;Signal;HPM_P1;HPM_P2
2021/12/01 00:00:45;;;;;;;15.23;7.53;;;;;;;-146.64;100.00;40074.63;5069374;28;20065;-77
2021/12/01 00:03:10;;;;;;;12.03;7.40;;;;;;;-146.64;100.00;40050.06;5052318;28;20480;-77
2021/12/01 00:05:36;;;;;;;10.67;6.20;;;;;;;-146.64;100.00;39996.84;5054734;28;20031;-77
2021/12/01 00:08:02;;;;;;;13.60;6.17;;;;;;;-146.64;100.00;39988.66;5064333;28;20035;-77
2021/12/01 00:10:29;;;;;;;12.27;6.82;;;;;;;-146.64;100.00;39980.47;5057811;28;20039;-77
2021/12/01 00:12:54;;;;;;;8.50;6.28;;;;;;;-146.64;100.00;39955.91;5046178;28;20035;-78
2021/12/01 00:15:20;;;;;;;9.38;5.57;;;;;;;-146.64;100.00;39962.06;5052867;28;20036;-77
2021/12/01 00:17:46;;;;;;;9.73;5.68;;;;;;;-146.64;100.00;39968.19;5049665;28;20125;-77
2021/12/01 00:20:15;;;;;;;10.43;6.90;;;;;;;-146.64;100.00;39955.91;5079743;28;20040;-77
2021/12/01 00:22:41;;;;;;;10.70;4.93;;;;;;;-146.64;100.00;40009.13;5064785;28;20070;-77
2021/12/01 00:25:09;;;;;;;8.52;5.03;;;;;;;-146.64;100.00;40029.59;5071149;28;20111;-78
2021/12/01 00:27:34;;;;;;;7.35;4.88;;;;;;;-146.64;100.00;40017.31;5062539;28;20031;-77
2021/12/01 00:30:00;;;;;;;12.23;5.30;;;;;;;-146.64;100.00;40021.41;5041628;28;20029;-77
2021/12/01 00:32:25;;;;;;;9.95;4.75;;;;;;;-146.64;100.00;40007.09;5062853;28;20037;-77
2021/12/01 00:34:51;;;;;;;9.75;4.43;;;;;;;-146.64;100.00;39992.75;5064503;28;20036;-77
2021/12/01 00:37:17;;;;;;;6.13;3.72;;;;;;;-146.64;100.00;39982.53;5059234;28;20029;-76
2021/12/01 00:39:43;;;;;;;8.13;3.78;;;;;;;-146.64;100.00;39880.19;5051805;28;20442;-77
2021/12/01 00:42:09;;;;;;;18.88;3.55;;;;;;;-146.64;100.00;39968.19;5059779;28;20142;-76
2021/12/01 00:44:36;;;;;;;7.45;3.53;;;;;;;-146.64;100.00;39935.44;5072552;28;20313;-77
2021/12/01 00:49:27;;;;;;;7.90;3.28;;;;;;;-146.64;100.00;39998.91;5041111;28;20040;-76
2021/12/01 00:51:53;;;;;;;5.65;2.97;;;;;;;-146.64;100.00;39968.19;5049450;28;20412;-76
2021/12/01 00:54:18;;;;;;;6.80;2.90;;;;;;;-146.64;100.00;39978.44;5045090;28;20028;-76
2021/12/01 00:56:44;;;;;;;4.37;2.57;;;;;;;-146.64;100.00;39978.44;5049905;28;20502;-76
2021/12/01 00:59:10;;;;;;;6.53;2.80;;;;;;;-146.64;100.00;39933.41;5045897;28;20036;-76
2021/12/01 01:01:36;;;;;;;8.73;2.93;;;;;;;-146.64;100.00;39878.13;5060833;28;20027;-77
2021/12/01 01:04:01;;;;;;;8.40;3.22;;;;;;;-146.64;100.00;39872.00;5053921;28;20035;-76
2021/12/01 01:06:27;;;;;;;6.13;3.27;;;;;;;-146.64;100.00;39906.78;5062772;28;20028;-76
2021/12/01 01:08:52;;;;;;;9.00;2.30;;;;;;;-146.64;100.00;39906.78;5065267;28;20043;-76
2021/12/01 01:16:49;;;;;;;6.85;3.50;;;;;;;-146.64;100.00;39968.19;5066777;28;20048;-76
2021/12/01 01:19:16;;;;;;;15.23;4.72;;;;;;;-146.64;100.00;39951.81;5064311;28;20495;-76
2021/12/01 01:21:44;;;;;;;;;;;;;;;-146.64;100.00;39970.25;5061623;28;20045;-76
2021/12/01 01:24:09;;;;;;;17.38;8.27;;;;;;;-146.64;100.00;39931.34;5059684;28;19913;-76
2021/12/01 01:26:35;;;;;;;19.63;9.38;;;;;;;-146.64;100.00;39980.47;5050401;28;20037;-76
2021/12/01 01:29:01;;;;;;;15.52;8.48;;;;;;;-146.64;100.00;39978.44;5053274;28;20117;-76
2021/12/01 01:31:27;;;;;;;18.45;8.68;;;;;;;-146.64;100.00;39955.91;5050950;28;20029;-76
2021/12/01 01:33:53;;;;;;;28.00;9.80;;;;;;;-146.64;100.00;39902.69;5035248;28;20048;-76
2021/12/01 01:36:19;;;;;;;15.53;7.37;;;;;;;-146.64;100.00;39949.78;5051601;28;20028;-77
2021/12/01 01:38:45;;;;;;;14.88;7.25;;;;;;;-146.64;100.00;39947.72;5053853;28;20489;-76
2021/12/01 01:41:12;;;;;;;20.50;7.57;;;;;;;-146.64;100.00;39970.25;5058749;28;20061;-76
2021/12/01 01:43:40;;;;;;;15.85;7.28;;;;;;;-146.64;100.00;39992.75;5062161;28;20078;-77
2021/12/01 01:46:06;;;;;;;15.48;7.43;;;;;;;-146.64;100.00;39933.41;5059059;28;20048;-77
2021/12/01 01:48:33;;;;;;;12.80;7.07;;;;;;;-146.64;100.00;39984.56;5062814;28;20550;-76
2021/12/01 01:51:05;;;;;;;;;;;;;;;-146.64;100.00;39955.91;5061553;28;20033;-77
2021/12/01 01:53:33;;;;;;;11.77;6.20;;;;;;;-146.64;100.00;40000.94;5052196;28;19924;-78
2021/12/01 01:56:05;;;;;;;15.18;6.88;;;;;;;-146.64;100.00;40031.66;5047717;28;20032;-77
2021/12/01 01:58:30;;;;;;;16.10;6.05;;;;;;;-146.64;100.00;40031.66;5062368;28;20078;-76
2021/12/01 02:01:06;;;;;;;13.55;6.90;;;;;;;-146.64;100.00;40013.22;5071983;28;20032;-78
2021/12/01 02:03:37;;;;;;;16.25;5.47;;;;;;;-146.64;100.00;39888.38;5059485;28;20051;-77
2021/12/01 02:06:03;;;;;;;9.38;5.30;;;;;;;-146.64;100.00;39984.56;5047145;28;20043;-78
2021/12/01 02:08:30;;;;;;;12.07;5.30;;;;;;;-146.64;100.00;40025.50;5055179;28;20028;-78
2021/12/01 02:10:57;;;;;;;;;;;;;;;-146.64;100.00;40035.75;5044971;28;20029;-77
2021/12/01 02:13:22;;;;;;;11.05;5.20;;;;;;;-146.64;100.00;40041.88;5038181;28;19952;-77
2021/12/01 02:15:49;;;;;;;10.13;4.97;;;;;;;-146.64;100.00;40025.50;5078761;28;20067;-77
2021/12/01 02:18:14;;;;;;;;;;;;;;;-146.64;100.00;40029.59;5073795;28;20048;-78
2021/12/01 02:20:40;;;;;;;11.00;4.70;;;;;;;-146.64;100.00;39992.75;5077272;28;19944;-78
2021/12/01 02:23:06;;;;;;;10.27;4.23;;;;;;;-146.64;100.00;39974.34;5052523;28;20078;-77
2021/12/01 02:25:31;;;;;;;8.18;4.13;;;;;;;-146.64;100.00;39976.38;5069989;28;20059;-77
2021/12/01 02:27:57;;;;;;;11.23;4.32;;;;;;;-146.64;100.00;39949.78;5048306;28;20108;-78
2021/12/01 02:30:23;;;;;;;9.37;4.17;;;;;;;-146.64;100.00;39955.91;5069392;28;20170;-78
2021/12/01 02:32:50;;;;;;;8.90;4.30;;;;;;;-146.64;100.00;39919.06;5065623;28;20079;-78
2021/12/01 02:35:16;;;;;;;14.38;4.75;;;;;;;-146.64;100.00;40003.00;5066420;28;20059;-77
2021/12/01 02:37:41;;;;;;;15.10;5.93;;;;;;;-146.64;100.00;39953.88;5062803;28;20020;-78
2021/12/01 02:40:07;;;;;;;18.15;7.20;;;;;;;-146.64;100.00;39955.91;5049764;28;20174;-78
2021/12/01 02:42:33;;;;;;;16.37;7.00;;;;;;;-146.64;100.00;40000.94;5049182;28;20523;-77
2021/12/01 02:44:58;;;;;;;18.05;8.45;;;;;;;-146.64;100.00;39982.53;5084125;28;20024;-78
2021/12/01 02:47:28;;;;;;;21.23;8.38;;;;;;;-146.64;100.00;39996.84;5063257;28;20080;-78
2021/12/01 02:49:54;;;;;;;16.60;7.25;;;;;;;-146.64;100.00;39902.69;5068993;28;20028;-78
2021/12/01 02:52:21;;;;;;;14.25;7.15;;;;;;;-146.64;100.00;39943.63;5062782;28;20033;-77
2021/12/01 02:54:46;;;;;;;14.95;6.90;;;;;;;-146.64;100.00;39974.34;5087688;28;20477;-77
2021/12/01 02:57:12;;;;;;;17.70;6.95;;;;;;;-146.64;100.00;39929.31;5052325;28;20104;-77
2021/12/01 02:59:38;;;;;;;17.73;7.28;;;;;;;-146.64;100.00;39955.91;5074942;28;20038;-78
2021/12/01 03:02:04;;;;;;;12.63;6.65;;;;;;;-146.64;100.00;39941.59;5052381;28;20037;-77
2021/12/01 03:04:30;;;;;;;12.97;7.00;;;;;;;-146.64;100.00;39951.81;5054370;28;20519;-78
2021/12/01 03:06:56;;;;;;;15.48;7.40;;;;;;;-146.64;100.00;39925.22;5046657;28;20356;-77
2021/12/01 03:09:21;;;;;;;16.10;7.17;;;;;;;-146.64;100.00;39927.25;5051388;28;20032;-77
2021/12/01 03:11:49;;;;;;;9.63;6.78;;;;;;;-146.64;100.00;39919.06;5066945;28;20288;-77
2021/12/01 03:14:16;;;;;;;12.82;6.45;;;;;;;-146.64;100.00;39929.31;5049118;28;20396;-77
2021/12/01 03:16:42;;;;;;;11.98;6.85;;;;;;;-146.64;100.00;39919.06;5075862;28;20031;-77
2021/12/01 03:19:08;;;;;;;12.77;7.03;;;;;;;-146.64;100.00;39894.50;5056187;28;20122;-77
2021/12/01 03:21:37;;;;;;;11.93;6.10;;;;;;;-146.64;100.00;39902.69;5044352;28;20166;-78
2021/12/01 03:24:03;;;;;;;10.68;5.85;;;;;;;-146.64;100.00;39878.13;5074153;28;20089;-78
2021/12/01 03:26:33;;;;;;;15.95;5.40;;;;;;;-146.64;100.00;39849.47;5067462;28;20418;-77
2021/12/01 03:28:58;;;;;;;10.57;6.00;;;;;;;-146.64;100.00;39839.25;5087834;28;20103;-78
2021/12/01 03:31:25;;;;;;;10.27;6.32;;;;;;;-146.64;100.00;39851.53;5052425;28;20097;-78
2021/12/01 03:33:50;;;;;;;8.02;5.68;;;;;;;-146.64;100.00;39845.38;5065436;28;20037;-78
2021/12/01 03:36:16;;;;;;;6.60;5.40;;;;;;;-146.64;100.00;39820.81;5049301;28;20039;-77
2021/12/01 03:38:41;;;;;;;10.00;5.78;;;;;;;-146.64;100.00;39829.00;5070727;28;20031;-77
2021/12/01 03:41:07;;;;;;;8.70;4.75;;;;;;;-146.64;100.00;39845.38;5063052;28;20028;-77
2021/12/01 03:43:32;;;;;;;8.25;4.35;;;;;;;-146.64;100.00;39820.81;5050349;28;20028;-78
2021/12/01 03:45:58;;;;;;;6.57;4.20;;;;;;;-146.64;100.00;39794.22;5050447;28;20028;-78
2021/12/01 03:48:24;;;;;;;7.50;3.83;;;;;;;-146.64;100.00;39804.44;5068559;28;20024;-77
2021/12/01 03:50:51;;;;;;;6.80;3.47;;;;;;;-146.64;100.00;39773.75;5057342;28;20032;-77
2021/12/01 03:53:18;;;;;;;3.30;3.00;;;;;;;-146.64;100.00;39794.22;5060815;28;20476;-78
2021/12/01 03:55:44;;;;;;;3.08;2.78;;;;;;;-146.64;100.00;39810.59;5065667;28;20029;-77
2021/12/01 03:58:10;;;;;;;3.00;2.33;;;;;;;-146.64;100.00;39814.69;5070144;28;20119;-77
2021/12/01 04:00:36;;;;;;;3.53;3.03;;;;;;;-146.64;100.00;39773.75;5084805;28;20107;-77
2021/12/01 04:03:01;;;;;;;3.88;3.00;;;;;;;-146.64;100.00;39812.63;5087806;28;20467;-77
2021/12/01 04:05:27;;;;;;;4.45;3.65;;;;;;;-146.64;100.00;39814.69;5076568;28;20024;-78
2021/12/01 04:07:53;;;;;;;4.47;3.20;;;;;;;-146.64;100.00;39822.88;5067170;28;20051;-78
2021/12/01 04:10:20;;;;;;;3.90;2.80;;;;;;;-146.64;100.00;39831.06;5067844;28;20032;-76
2021/12/01 04:12:46;;;;;;;;;;;;;;;-146.64;100.00;39824.91;5071471;28;20093;-78
2021/12/01 04:15:12;;;;;;;4.80;3.15;;;;;;;-146.64;100.00;39783.97;5084643;28;19916;-78
2021/12/01 04:17:38;;;;;;;5.25;2.97;;;;;;;-146.64;100.00;39794.22;5066777;28;20050;-78
2021/12/01 04:20:04;;;;;;;7.37;3.80;;;;;;;-146.64;100.00;39794.22;5055185;28;20445;-77
2021/12/01 04:22:29;;;;;;;4.20;3.77;;;;;;;-146.64;100.00;39738.94;5062902;28;20044;-77
2021/12/01 04:24:55;;;;;;;5.70;4.33;;;;;;;-146.64;100.00;39816.72;5081154;28;20051;-77
2021/12/01 04:27:20;;;;;;;5.80;4.60;;;;;;;-146.64;100.00;39775.78;5053652;28;20119;-78
2021/12/01 04:29:46;;;;;;;9.38;5.05;;;;;;;-146.64;100.00;39779.88;5045838;28;20567;-77
2021/12/01 04:32:11;;;;;;;6.18;4.95;;;;;;;-146.64;100.00;39857.66;5060637;28;20032;-78
2021/12/01 04:34:37;;;;;;;6.00;5.22;;;;;;;-146.64;100.00;39896.56;5058453;28;20024;-77
2021/12/01 04:37:03;;;;;;;6.07;4.47;;;;;;;-146.64;100.00;39904.75;5060250;28;20029;-77
2021/12/01 04:39:28;;;;;;;5.95;5.35;;;;;;;-146.64;100.00;39814.69;5084427;28;20215;-77
2021/12/01 04:41:57;;;;;;;9.20;5.00;;;;;;;-146.64;100.00;39900.66;5064956;28;20119;-77
2021/12/01 04:44:25;;;;;;;5.78;5.18;;;;;;;-146.64;100.00;39914.97;5068233;28;20055;-78
2021/12/01 04:46:53;;;;;;;5.90;5.28;;;;;;;-146.64;100.00;39902.69;5064428;28;20067;-77
2021/12/01 04:49:20;;;;;;;6.10;5.50;;;;;;;-146.64;100.00;39902.69;5046100;28;20016;-78
2021/12/01 04:51:47;;;;;;;;;;;;;;;-146.64;100.00;39890.41;5055923;28;20514;-78
2021/12/01 04:54:13;;;;;;;6.55;5.50;;;;;;;-146.64;100.00;39882.22;5075681;28;19915;-78
2021/12/01 04:56:40;;;;;;;8.70;4.95;;;;;;;-146.64;100.00;39859.72;5061714;28;20031;-79
2021/12/01 04:59:06;;;;;;;9.93;5.38;;;;;;;-146.64;100.00;39865.84;5073902;28;20443;-78
2021/12/01 05:01:34;;;;;;;7.43;5.23;;;;;;;-146.64;100.00;39771.69;5058144;28;20032;-78
2021/12/01 05:03:59;;;;;;;8.40;5.50;;;;;;;-146.64;100.00;39849.47;5072777;28;20027;-78
2021/12/01 05:06:25;;;;;;;9.32;5.68;;;;;;;-146.64;100.00;39869.94;5062172;28;20056;-78
2021/12/01 05:08:51;;;;;;;7.13;5.63;;;;;;;-146.64;100.00;39835.16;5076832;28;20392;-78
2021/12/01 05:11:17;;;;;;;9.90;5.63;;;;;;;-146.64;100.00;39857.66;5051046;28;20037;-78
2021/12/01 05:13:42;;;;;;;10.63;5.38;;;;;;;-146.64;100.00;39874.03;5058875;28;20029;-78
2021/12/01 05:16:08;;;;;;;7.10;5.60;;;;;;;-146.64;100.00;39914.97;5085783;28;20031;-78
2021/12/01 05:18:33;;;;;;;7.80;5.60;;;;;;;-146.64;100.00;39841.28;5068105;28;20526;-78
2021/12/01 05:20:58;;;;;;;14.20;5.73;;;;;;;-146.64;100.00;39779.88;5066934;28;20032;-79
2021/12/01 05:23:24;;;;;;;8.90;5.53;;;;;;;-146.64;100.00;39894.50;5052190;28;20021;-79
2021/12/01 05:25:49;;;;;;;7.22;5.45;;;;;;;-146.64;100.00;39892.47;5044427;28;20040;-78
2021/12/01 05:28:15;;;;;;;12.32;5.55;;;;;;;-146.64;100.00;39865.84;5051592;28;20498;-80
2021/12/01 05:30:40;;;;;;;7.97;5.75;;;;;;;-146.64;100.00;39841.28;5051479;28;20021;-78
2021/12/01 05:33:08;;;;;;;8.02;5.50;;;;;;;-146.64;100.00;39867.91;5049652;28;20048;-78
2021/12/01 05:35:35;;;;;;;6.00;5.38;;;;;;;-146.64;100.00;39929.31;5052120;28;20431;-78
2021/12/01 05:38:00;;;;;;;7.70;5.75;;;;;;;-146.64;100.00;39857.66;5073919;28;20062;-78
2021/12/01 05:40:25;;;;;;;6.20;5.07;;;;;;;-146.64;100.00;39914.97;5053153;28;20185;-78
2021/12/01 05:42:51;;;;;;;8.52;5.40;;;;;;;-146.64;100.00;39833.09;5054497;28;20028;-77
2021/12/01 05:45:16;;;;;;;8.57;5.60;;;;;;;-146.64;100.00;39919.06;5069213;28;20029;-78
2021/12/01 05:47:42;;;;;;;7.63;5.27;;;;;;;-146.64;100.00;39900.66;5062111;28;20075;-78
2021/12/01 05:50:07;;;;;;;8.43;5.43;;;;;;;-146.64;100.00;39882.22;5051630;28;20051;-77
2021/12/01 05:52:33;;;;;;;8.57;5.57;;;;;;;-146.64;100.00;39906.78;5063762;28;20040;-78
2021/12/01 05:54:58;;;;;;;7.57;4.93;;;;;;;-146.64;100.00;39878.13;5050966;28;20028;-78
2021/12/01 05:57:24;;;;;;;7.47;5.30;;;;;;;-146.64;100.00;39882.22;5067699;28;20035;-77
2021/12/01 05:59:49;;;;;;;9.00;4.93;;;;;;;-146.64;100.00;39927.25;5080788;28;20205;-78
2021/12/01 06:02:15;;;;;;;8.48;5.80;;;;;;;-146.64;100.00;39898.59;5078574;28;20043;-77
2021/12/01 06:04:40;;;;;;;8.23;5.70;;;;;;;-146.64;100.00;39869.94;5069648;28;20036;-77
2021/12/01 06:07:06;;;;;;;8.48;5.93;;;;;;;-146.64;100.00;39906.78;5049542;28;20044;-78
2021/12/01 06:09:31;;;;;;;8.23;5.77;;;;;;;-146.64;100.00;39908.84;5067563;28;20351;-78
2021/12/01 06:11:57;;;;;;;9.60;6.25;;;;;;;-146.64;100.00;39921.13;5071943;28;20480;-78
2021/12/01 06:14:22;;;;;;;8.15;6.15;;;;;;;-146.64;100.00;39874.03;5066076;28;20021;-77
2021/12/01 06:16:47;;;;;;;8.13;6.57;;;;;;;-146.64;100.00;39890.41;5053179;28;20082;-77
2021/12/01 06:19:13;;;;;;;12.98;6.45;;;;;;;-146.64;100.00;39923.16;5038427;28;20516;-77
2021/12/01 06:21:38;;;;;;;10.20;6.90;;;;;;;-146.64;100.00;39912.94;5057601;28;20035;-77
2021/12/01 06:24:04;;;;;;;10.98;6.65;;;;;;;-146.64;100.00;39906.78;5063720;28;20051;-78
2021/12/01 06:26:30;;;;;;;10.47;6.30;;;;;;;-146.64;100.00;39923.16;5060842;28;20021;-78
2021/12/01 06:28:55;;;;;;;10.25;6.18;;;;;;;-146.64;100.00;39906.78;5055910;28;20060;-78
2021/12/01 06:31:21;;;;;;;12.38;5.82;;;;;;;-146.64;100.00;39906.78;5064938;28;20032;-79
2021/12/01 06:33:47;;;;;;;9.48;4.80;;;;;;;-146.64;100.00;39914.97;5063947;28;20029;-78
2021/12/01 06:36:12;;;;;;;12.48;4.60;;;;;;;-146.64;100.00;39826.97;5069770;28;20108;-78
2021/12/01 06:38:41;;;;;;;6.38;3.50;;;;;;;-146.64;100.00;39886.31;5069514;28;20036;-78
2021/12/01 06:41:07;;;;;;;7.70;3.58;;;;;;;-146.64;100.00;39781.94;5077081;28;20039;-78
2021/12/01 06:43:33;;;;;;;5.15;2.92;;;;;;;-146.64;100.00;39878.13;5093971;28;20036;-77
2021/12/01 06:45:58;;;;;;;7.28;3.67;;;;;;;-146.64;100.00;39882.22;5067089;28;20032;-79
2021/12/01 06:48:24;;;;;;;5.57;3.08;;;;;;;-146.64;100.00;39876.09;5069180;28;20499;-78
2021/12/01 06:50:49;;;;;;;6.38;3.28;;;;;;;-146.64;100.00;39910.88;5061954;28;20025;-79
2021/12/01 06:53:14;;;;;;;3.80;2.65;;;;;;;-146.64;100.00;39861.75;5077814;28;20032;-79
2021/12/01 06:55:40;;;;;;;6.22;3.00;;;;;;;-146.64;100.00;39898.59;5073837;28;20442;-78
2021/12/01 06:58:05;;;;;;;3.05;2.60;;;;;;;-146.64;100.00;39921.13;5059213;28;20398;-78
2021/12/01 07:00:31;;;;;;;8.87;3.10;;;;;;;-146.64;100.00;39894.50;5052394;28;20021;-78
2021/12/01 07:02:57;;;;;;;3.50;2.60;;;;;;;-146.64;100.00;39943.63;5069046;28;20028;-79
2021/12/01 07:05:22;;;;;;;4.60;3.47;;;;;;;-146.64;100.00;39960.00;5059375;28;20029;-78
2021/12/01 07:07:48;;;;;;;7.68;3.10;;;;;;;-146.64;100.00;39906.78;5068436;28;20393;-78
2021/12/01 07:10:14;;;;;;;7.78;3.28;;;;;;;-146.64;100.00;39919.06;5064281;28;20040;-78
2021/12/01 07:12:39;;;;;;;5.80;3.53;;;;;;;-146.64;100.00;39943.63;5050439;28;20024;-78
2021/12/01 07:15:06;;;;;;;8.38;3.78;;;;;;;-146.64;100.00;39939.53;5062056;28;20071;-79
2021/12/01 07:17:32;;;;;;;4.93;3.60;;;;;;;-146.64;100.00;39902.69;5082429;28;20024;-78
2021/12/01 07:19:57;;;;;;;4.07;3.70;;;;;;;-146.64;100.00;39890.41;5066643;28;20051;-79
2021/12/01 07:22:23;;;;;;;9.10;3.72;;;;;;;-146.64;100.00;39923.16;5073857;28;20032;-77
2021/12/01 07:24:48;;;;;;;7.35;3.58;;;;;;;-146.64;100.00;39923.16;5084446;28;20024;-78
2021/12/01 07:27:14;;;;;;;4.40;3.63;;;;;;;-146.64;100.00;39906.78;5071052;28;20128;-77
2021/12/01 07:29:42;;;;;;;9.23;4.22;;;;;;;-146.64;100.00;39894.50;5067274;28;20542;-77
2021/12/01 07:32:08;;;;;;;7.28;3.97;;;;;;;-146.64;100.00;39824.91;5055781;28;20535;-77
2021/12/01 07:34:41;;;;;;;7.22;3.90;;;;;;;-146.64;100.00;39859.72;5061778;28;20036;-77
2021/12/01 07:37:07;;;;;;;5.53;3.38;;;;;;;-146.64;100.00;39853.56;5061728;28;20053;-77
2021/12/01 07:39:32;;;;;;;6.20;3.47;;;;;;;-146.64;100.00;39771.69;5060313;28;20380;-77
2021/12/01 07:41:58;;;;;;;15.02;3.60;;;;;;;-146.64;100.00;39890.41;5062592;28;20025;-77
2021/12/01 07:44:24;;;;;;;10.02;3.60;;;;;;;-146.64;100.00;39796.25;5075668;28;20064;-79
2021/12/01 07:46:49;;;;;;;9.93;3.60;;;;;;;-146.64;100.00;39837.19;5069124;28;20082;-78
2021/12/01 07:49:14;;;;;;;4.65;3.45;;;;;;;-146.64;100.00;39843.34;5054060;28;20272;-78
2021/12/01 07:51:40;;;;;;;5.53;3.07;;;;;;;-146.64;100.00;39826.97;5080343;28;20166;-79
2021/12/01 07:54:05;;;;;;;4.43;3.07;;;;;;;-146.64;100.00;39734.84;5057411;28;20093;-79
2021/12/01 07:56:32;;;;;;;9.00;3.72;;;;;;;-146.64;100.00;39767.59;5075262;28;20115;-78
2021/12/01 07:58:57;;;;;;;;;;;;;;;-146.64;100.00;39816.72;5081489;28;20548;-78
2021/12/01 08:01:23;;;;;;;7.28;3.55;;;;;;;-146.64;100.00;39804.44;5086677;28;19912;-79
2021/12/01 08:03:48;;;;;;;9.70;3.83;;;;;;;-146.64;100.00;39833.09;5060096;28;20491;-78
2021/12/01 08:06:13;;;;;;;11.10;4.55;;;;;;;-146.64;100.00;39824.91;5050540;28;20040;-77
2021/12/01 08:08:39;;;;;;;15.68;4.15;;;;;;;-146.64;100.00;39792.16;5072006;28;20019;-78
2021/12/01 08:11:04;;;;;;;33.35;4.43;;;;;;;-146.64;100.00;39882.22;5042550;28;20123;-78
2021/12/01 08:13:30;;;;;;;7.68;2.90;;;;;;;-146.64;100.00;39906.78;5067194;28;20032;-79
2021/12/01 08:15:55;;;;;;;8.77;3.22;;;;;;;-146.64;100.00;39876.09;5054838;28;20074;-78
2021/12/01 08:18:20;;;;;;;12.30;2.60;;;;;;;-146.64;100.00;39792.16;5078225;28;20072;-78
2021/12/01 08:20:46;;;;;;;15.60;2.67;;;;;;;-146.64;100.00;39783.97;5084150;28;20117;-78
2021/12/01 08:23:11;;;;;;;14.48;2.13;;;;;;;-146.64;100.00;39812.63;5044528;28;20472;-78
2021/12/01 08:25:37;;;;;;;16.40;3.03;;;;;;;-146.64;100.00;39783.97;5062086;28;20020;-77
2021/12/01 08:28:02;;;;;;;17.45;2.95;;;;;;;-146.64;100.00;39820.81;5053397;28;20029;-78
2021/12/01 08:30:29;;;;;;;15.30;3.05;;;;;;;-146.64;100.00;39788.06;5052406;28;20094;-78
2021/12/01 08:32:54;;;;;;;15.98;3.50;;;;;;;-146.64;100.00;39853.56;5064747;28;20043;-78
2021/12/01 08:35:20;;;;;;;22.33;3.35;;;;;;;-146.64;100.00;39773.75;5045087;28;20033;-78
2021/12/01 08:37:45;;;;;;;11.57;3.33;;;;;;;-146.64;100.00;39888.38;5065134;28;20093;-78
2021/12/01 08:40:14;;;;;;;17.45;3.25;;;;;;;-146.64;100.00;39861.75;5056246;28;20112;-78
2021/12/01 08:42:39;;;;;;;16.85;2.75;;;;;;;-146.64;100.00;39845.38;5044055;28;20016;-78
2021/12/01 08:45:05;;;;;;;17.77;2.50;;;;;;;-146.64;100.00;39818.78;5061015;28;20036;-77
2021/12/01 08:47:31;;;;;;;11.10;2.85;;;;;;;-146.64;100.00;39818.78;5066064;28;20028;-78
2021/12/01 08:49:57;;;;;;;18.98;2.25;;;;;;;-146.64;100.00;39796.25;5079896;28;20030;-78
2021/12/01 08:52:23;;;;;;;18.30;2.20;;;;;;;-146.64;100.00;39788.06;5043938;28;20107;-78
2021/12/01 08:54:49;;;;;;;14.33;2.13;;;;;;;-146.64;100.00;39728.72;5063057;28;20028;-78
2021/12/01 08:57:14;;;;;;;9.38;2.08;;;;;;;-146.64;100.00;39779.88;5042484;28;20028;-79
2021/12/01 08:59:40;;;;;;;14.73;2.22;;;;;;;-146.64;100.00;39734.84;5057071;28;20037;-78
2021/12/01 09:02:05;;;;;;;15.93;2.13;;;;;;;-146.64;100.00;39730.75;5063295;28;20036;-79
2021/12/01 09:04:31;;;;;;;20.05;3.78;;;;;;;-146.64;100.00;39706.19;5053410;28;20383;-78
2021/12/01 09:06:56;;;;;;;26.07;2.77;;;;;;;-146.64;100.00;39695.97;5056527;28;20021;-77
2021/12/01 09:09:22;;;;;;;27.70;2.55;;;;;;;-146.64;100.00;39708.25;5064864;28;20048;-77
2021/12/01 09:11:49;;;;;;;12.65;2.13;;;;;;;-146.64;100.00;39673.44;5042594;28;20028;-77
2021/12/01 09:14:15;;;;;;;27.25;2.85;;;;;;;-146.64;100.00;39693.91;5038756;28;20021;-77
2021/12/01 09:16:42;;;;;;;14.27;2.60;;;;;;;-146.64;100.00;39661.16;5040909;28;20116;-77
2021/12/01 09:19:08;;;;;;;14.27;2.33;;;;;;;-146.64;100.00;39675.50;5047393;28;20044;-77
2021/12/01 09:21:33;;;;;;;17.38;1.92;;;;;;;-146.64;100.00;39681.63;5064312;28;20448;-77
2021/12/01 09:23:59;;;;;;;12.18;2.03;;;;;;;-146.64;100.00;39646.84;5067609;28;20028;-77
2021/12/01 09:26:24;;;;;;;13.35;1.90;;;;;;;-146.64;100.00;39591.56;5075801;28;20086;-78
2021/12/01 09:28:49;;;;;;;8.40;2.38;;;;;;;-146.64;100.00;39585.44;5058473;28;20055;-77
2021/12/01 09:31:15;;;;;;;16.83;1.90;;;;;;;-146.64;100.00;39554.72;5049792;28;20044;-78
2021/12/01 09:33:40;;;;;;;10.20;2.07;;;;;;;-146.64;100.00;39540.41;5060033;28;20051;-78
2021/12/01 09:36:06;;;;;;;12.52;2.13;;;;;;;-146.64;100.00;39534.25;5067320;28;20028;-79
2021/12/01 09:38:31;;;;;;;12.50;1.55;;;;;;;-146.64;100.00;39542.44;5071665;28;20437;-78
2021/12/01 09:40:58;;;;;;;10.52;2.28;;;;;;;-146.64;100.00;39509.72;5053183;28;20024;-79
2021/12/01 09:43:27;;;;;;;17.25;1.88;;;;;;;-146.64;100.00;39530.16;5076334;28;20475;-78
2021/12/01 09:45:58;;;;;;;12.70;2.30;;;;;;;-146.64;100.00;39489.25;5058022;28;20057;-78
2021/12/01 09:48:24;;;;;;;10.07;1.60;;;;;;;-146.64;100.00;39470.81;5057121;28;20027;-78
2021/12/01 09:50:50;;;;;;;11.83;1.67;;;;;;;-146.64;100.00;39485.16;5060342;28;20037;-78
2021/12/01 09:53:15;;;;;;;8.77;1.80;;;;;;;-146.64;100.00;39558.81;5054980;28;20064;-78
2021/12/01 09:55:41;;;;;;;14.37;1.70;;;;;;;-146.64;100.00;39530.16;5054463;28;20048;-78
2021/12/01 09:58:11;;;;;;;23.38;1.88;;;;;;;-146.64;100.00;39505.63;5062001;28;20048;-78
2021/12/01 10:00:41;;;;;;;14.48;1.90;;;;;;;-146.64;100.00;39530.16;5075636;28;20421;-78
2021/12/01 10:03:07;;;;;;;25.50;2.75;;;;;;;-146.64;100.00;39562.91;5058131;28;20024;-78
2021/12/01 10:06:11;;;;;;;10.65;2.30;;;;;;;-146.64;100.00;39554.72;5054294;28;20043;-78
2021/12/01 10:08:49;;;;;;;8.27;1.50;;;;;;;-146.64;100.00;39542.44;5074568;28;20093;-77
2021/12/01 10:11:20;;;;;;;6.85;1.98;;;;;;;-146.64;100.00;39544.50;5076489;28;20060;-78
2021/12/01 10:13:54;;;;;;;16.25;2.10;;;;;;;-146.64;100.00;39538.34;5069552;28;20390;-77
2021/12/01 10:16:23;;;;;;;12.38;1.90;;;;;;;-146.64;100.00;39558.81;5064987;28;20029;-77
2021/12/01 10:18:54;;;;;;;12.52;1.40;;;;;;;-146.64;100.00;39546.53;5069798;28;20150;-78
2021/12/01 10:21:21;;;;;;;9.00;1.75;;;;;;;-146.64;100.00;39567.00;5095168;28;20024;-78
2021/12/01 10:23:52;;;;;;;7.63;2.20;;;;;;;-146.64;100.00;39446.25;5074234;28;20714;-77
2021/12/01 10:26:25;;;;;;;9.18;2.42;;;;;;;-146.64;100.00;39564.97;5060521;28;20495;-78
2021/12/01 10:28:56;;;;;;;9.57;2.03;;;;;;;-146.64;100.00;39583.38;5073431;28;20040;-78
2021/12/01 10:31:46;;;;;;;13.10;2.53;;;;;;;-146.64;100.00;39583.38;5044975;28;20036;-78
2021/12/01 10:34:30;;;;;;;9.73;2.70;;;;;;;-146.64;100.00;39583.38;5071970;28;20389;-77
2021/12/01 10:37:07;;;;;;;13.07;2.15;;;;;;;-146.64;100.00;39599.75;5060229;28;20068;-78
2021/12/01 10:39:33;;;;;;;7.50;1.65;;;;;;;-146.64;100.00;39505.63;5071455;28;20032;-78
2021/12/01 10:42:04;;;;;;;24.00;2.87;;;;;;;-146.64;100.00;39522.00;5046263;28;20024;-78
2021/12/01 10:44:30;;;;;;;13.00;2.35;;;;;;;-146.64;100.00;39530.16;5068746;28;20108;-78
2021/12/01 10:46:55;;;;;;;14.88;1.95;;;;;;;-146.64;100.00;39519.94;5063523;28;20068;-78
2021/12/01 10:49:38;;;;;;;12.07;2.83;;;;;;;-146.64;100.00;39515.84;5075348;28;20024;-78
2021/12/01 10:52:04;;;;;;;12.38;2.70;;;;;;;-146.64;100.00;39509.72;5061552;28;20029;-78
2021/12/01 10:54:30;;;;;;;13.63;2.30;;;;;;;-146.64;100.00;39470.81;5069538;28;20032;-78
2021/12/01 10:57:21;;;;;;;13.45;2.13;;;;;;;-146.64;100.00;39485.16;5049856;28;20119;-77
2021/12/01 10:59:49;;;;;;;12.60;2.28;;;;;;;-146.64;100.00;39489.25;5066628;28;20036;-79
2021/12/01 11:02:16;;;;;;;12.20;1.77;;;;;;;-146.64;100.00;39509.72;5078107;28;20020;-78
2021/12/01 11:04:42;;;;;;;;;;;;;;;-146.64;100.00;39511.75;5073967;28;20055;-79
2021/12/01 11:07:23;;;;;;;9.40;1.92;;;;;;;-146.64;100.00;39370.53;5066905;28;19920;-78
2021/12/01 11:10:26;;;;;;;18.63;2.17;;;;;;;-146.64;100.00;39472.88;5056850;28;20039;-78
2021/12/01 11:13:00;;;;;;;13.52;2.00;;;;;;;-146.64;100.00;39386.91;5048930;28;20119;-78